createdAt,value
2023-03-18T00:00:28.498Z,99636.47
2023-03-18T00:02:55.272Z,99595.13
2023-03-18T00:05:22.099Z,99590.91
2023-03-18T00:07:50.430Z,99598.53
2023-03-18T00:10:17.337Z,99645.63
2023-03-18T00:12:45.100Z,99635.06
2023-03-18T00:15:13.895Z,99672.09
2023-03-18T00:17:41.345Z,99639.00
2023-03-18T00:20:09.598Z,99671.50
2023-03-18T00:22:37.951Z,99629.78
2023-03-18T00:25:07.719Z,99634.66
2023-03-18T00:27:35.959Z,99638.03
2023-03-18T00:30:05.226Z,99665.56
2023-03-18T00:32:32.876Z,99662.00
2023-03-18T00:35:01.332Z,99643.25
2023-03-18T00:37:30.758Z,99600.50
2023-03-18T00:40:06.517Z,99671.38
2023-03-18T00:42:40.196Z,99678.91
2023-03-18T00:45:10.465Z,99590.22
2023-03-18T00:47:38.652Z,99651.72
2023-03-18T00:50:08.534Z,99678.22
2023-03-18T00:52:35.782Z,99640.16
2023-03-18T00:55:02.491Z,99629.16
2023-03-18T00:57:30.187Z,99655.03
2023-03-18T00:59:59.458Z,99672.72
2023-03-18T01:02:27.622Z,99671.09
2023-03-18T01:04:54.463Z,99646.56
2023-03-18T01:07:21.157Z,99604.13
2023-03-18T01:09:48.227Z,99634.41
2023-03-18T01:12:15.850Z,99663.75
2023-03-18T01:14:43.281Z,99622.25
2023-03-18T01:17:10.856Z,99650.16
2023-03-18T01:19:38.085Z,99652.06
2023-03-18T01:22:05.454Z,99683.09
2023-03-18T01:24:32.173Z,99632.16
2023-03-18T01:27:00.108Z,99641.00
2023-03-18T01:29:27.433Z,99683.56
2023-03-18T01:31:55.189Z,99595.50
2023-03-18T01:34:22.053Z,99666.25
2023-03-18T01:36:48.831Z,99637.47
2023-03-18T01:39:15.630Z,99631.78
2023-03-18T01:41:42.381Z,99649.94
2023-03-18T01:44:17.859Z,99684.84
2023-03-18T01:46:49.821Z,99678.22
2023-03-18T01:49:19.228Z,99683.84
2023-03-18T01:52:05.355Z,99685.91
2023-03-18T01:54:37.977Z,99685.84
2023-03-18T01:57:05.135Z,99615.16
2023-03-18T01:59:34.323Z,99657.47
2023-03-18T02:02:09.262Z,99680.69
2023-03-18T02:04:47.662Z,99636.72
2023-03-18T02:07:29.926Z,99690.94
2023-03-18T02:10:06.187Z,99678.28
2023-03-18T02:12:36.764Z,99680.06
2023-03-18T02:15:07.371Z,99679.91
2023-03-18T02:17:37.534Z,99629.97
2023-03-18T02:20:28.066Z,99675.47
2023-03-18T02:23:29.345Z,99660.81
2023-03-18T02:25:58.849Z,99685.38
2023-03-18T02:28:28.211Z,99676.22
2023-03-18T02:30:59.506Z,99691.53
2023-03-18T02:33:32.113Z,99641.78
2023-03-18T02:36:04.736Z,99687.31
2023-03-18T02:38:32.335Z,99648.69
2023-03-18T02:40:59.255Z,99685.06
2023-03-18T02:43:32.508Z,99646.78
2023-03-18T02:46:07.274Z,99679.09
2023-03-18T02:48:43.404Z,99679.09
2023-03-18T02:51:13.245Z,99643.59
2023-03-18T02:53:41.872Z,99644.41
2023-03-18T02:56:09.767Z,99657.91
2023-03-18T02:58:37.714Z,99641.63
2023-03-18T03:01:06.612Z,99665.81
2023-03-18T03:03:35.224Z,99631.25
2023-03-18T03:06:03.442Z,99671.75
2023-03-18T03:08:30.660Z,99629.47
2023-03-18T03:10:57.715Z,99646.47
2023-03-18T03:13:24.966Z,99653.13
2023-03-18T03:15:51.897Z,99672.38
2023-03-18T03:18:18.724Z,99648.44
2023-03-18T03:20:45.800Z,99648.38
2023-03-18T03:23:14.607Z,99657.66
2023-03-18T03:25:42.108Z,99699.09
2023-03-18T03:28:09.948Z,99658.34
2023-03-18T03:30:36.906Z,99685.50
2023-03-18T03:33:04.123Z,99650.03
2023-03-18T03:35:31.394Z,99706.03
2023-03-18T03:37:58.513Z,99690.38
2023-03-18T03:40:26.202Z,99692.41
2023-03-18T03:42:53.043Z,99651.88
2023-03-18T03:45:20.255Z,99681.97
2023-03-18T03:47:47.880Z,99724.63
2023-03-18T03:50:16.305Z,99708.16
2023-03-18T03:52:43.576Z,99675.16
2023-03-18T03:55:13.222Z,99724.25
2023-03-18T03:57:40.306Z,99703.88
2023-03-18T04:00:13.542Z,99709.09
2023-03-18T04:02:44.883Z,99724.31
2023-03-18T04:05:14.540Z,99730.81
2023-03-18T04:07:42.327Z,99659.13
2023-03-18T04:10:11.165Z,99726.84
2023-03-18T04:12:39.226Z,99706.53
2023-03-18T04:15:07.391Z,99712.25
2023-03-18T04:17:35.128Z,99704.44
2023-03-18T04:20:02.182Z,99737.09
2023-03-18T04:22:29.715Z,99670.31
2023-03-18T04:24:56.650Z,99709.16
2023-03-18T04:27:23.533Z,99698.72
2023-03-18T04:29:50.364Z,99741.03
2023-03-18T04:32:17.300Z,99686.88
2023-03-18T04:34:44.774Z,99717.19
2023-03-18T04:37:14.205Z,99719.53
2023-03-18T04:39:41.889Z,99742.44
2023-03-18T04:42:08.581Z,99677.13
2023-03-18T04:44:35.249Z,99686.19
2023-03-18T04:47:01.950Z,99688.03
2023-03-18T04:49:29.242Z,99725.44
2023-03-18T04:51:56.367Z,99691.25
2023-03-18T04:54:23.075Z,99701.19
2023-03-18T04:56:50.039Z,99683.78
2023-03-18T04:59:17.093Z,99706.91
2023-03-18T05:01:43.865Z,99700.91
2023-03-18T05:04:10.644Z,99703.75
2023-03-18T05:06:37.606Z,99689.47
2023-03-18T05:09:05.690Z,99724.78
2023-03-18T05:11:33.206Z,99712.06
2023-03-18T05:13:59.967Z,99728.84
2023-03-18T05:16:27.034Z,99669.59
2023-03-18T05:18:53.751Z,99724.53
2023-03-18T05:21:20.432Z,99714.72
2023-03-18T05:23:47.253Z,99723.19
2023-03-18T05:26:13.975Z,99667.06
2023-03-18T05:28:40.700Z,99700.91
2023-03-18T05:31:07.621Z,99683.06
2023-03-18T05:33:34.421Z,99694.41
2023-03-18T05:36:01.182Z,99733.69
2023-03-18T05:38:28.006Z,99681.72
2023-03-18T05:40:55.447Z,99697.59
2023-03-18T05:43:23.301Z,99713.22
2023-03-18T05:45:50.333Z,99706.47
2023-03-18T05:48:17.676Z,99726.84
2023-03-18T05:50:45.190Z,99674.44
2023-03-18T05:53:12.294Z,99708.31
2023-03-18T05:55:40.563Z,99707.19
2023-03-18T05:58:07.713Z,99729.34
2023-03-18T06:00:35.426Z,99745.00
2023-03-18T06:03:02.482Z,99739.06
2023-03-18T06:05:31.409Z,99736.50
2023-03-18T06:07:58.819Z,99707.91
2023-03-18T06:10:26.080Z,99708.59
2023-03-18T06:12:54.957Z,99733.94
2023-03-18T06:15:22.440Z,99730.88
2023-03-18T06:17:49.486Z,99695.91
2023-03-18T06:20:18.806Z,99693.31
2023-03-18T06:22:49.764Z,99747.88
2023-03-18T06:25:18.985Z,99707.97
2023-03-18T06:27:46.849Z,99661.28
2023-03-18T06:30:15.482Z,99724.53
2023-03-18T06:32:42.664Z,99717.06
2023-03-18T06:35:10.597Z,99745.03
2023-03-18T06:37:38.328Z,99672.66
2023-03-18T06:40:06.274Z,99718.97
2023-03-18T06:42:33.437Z,99732.22
2023-03-18T06:45:00.434Z,99674.88
2023-03-18T06:47:27.844Z,99737.06
2023-03-18T06:49:56.033Z,99729.72
2023-03-18T06:52:23.486Z,99724.66
2023-03-18T06:54:50.671Z,99723.59
2023-03-18T06:57:17.969Z,99712.66
2023-03-18T06:59:45.719Z,99700.16
2023-03-18T07:02:13.236Z,99758.06
2023-03-18T07:04:40.147Z,99755.78
2023-03-18T07:07:07.331Z,99750.56
2023-03-18T07:09:34.097Z,99742.28
2023-03-18T07:12:01.339Z,99752.81
2023-03-18T07:14:31.011Z,99756.59
2023-03-18T07:16:57.718Z,99758.31
2023-03-18T07:19:24.661Z,99714.41
2023-03-18T07:21:51.709Z,99767.53
2023-03-18T07:24:21.236Z,99703.22
2023-03-18T07:26:50.301Z,99751.47
2023-03-18T07:29:17.297Z,99738.59
2023-03-18T07:31:44.625Z,99770.91
2023-03-18T07:34:12.367Z,99722.69
2023-03-18T07:36:39.251Z,99721.41
2023-03-18T07:39:07.417Z,99746.94
2023-03-18T07:41:36.057Z,99717.91
2023-03-18T07:44:05.227Z,99745.84
2023-03-18T07:46:32.005Z,99763.88
2023-03-18T07:48:58.761Z,99734.81
2023-03-18T07:51:25.486Z,99729.81
2023-03-18T07:53:52.335Z,99770.84
2023-03-18T07:56:19.247Z,99760.56
2023-03-18T07:58:46.787Z,99784.91
2023-03-18T08:01:16.552Z,99730.13
2023-03-18T08:03:43.901Z,99756.47
2023-03-18T08:06:11.479Z,99754.28
2023-03-18T08:08:39.290Z,99749.16
2023-03-18T08:11:06.782Z,99791.53
2023-03-18T08:13:34.048Z,99771.22
2023-03-18T08:16:00.777Z,99748.09
2023-03-18T08:18:27.514Z,99749.22
2023-03-18T08:20:54.776Z,99753.19
2023-03-18T08:23:21.652Z,99759.28
2023-03-18T08:25:49.861Z,99722.53
2023-03-18T08:28:17.771Z,99751.81
2023-03-18T08:30:44.617Z,99753.88
2023-03-18T08:33:11.428Z,99742.88
2023-03-18T08:35:41.739Z,99728.97
2023-03-18T08:38:09.350Z,99752.19
2023-03-18T08:40:36.085Z,99750.00
2023-03-18T08:43:02.887Z,99777.09
2023-03-18T08:45:29.719Z,99765.25
2023-03-18T08:47:56.573Z,99751.97
2023-03-18T08:50:28.524Z,99778.63
2023-03-18T08:53:00.036Z,99751.81
2023-03-18T08:55:35.489Z,99757.75
2023-03-18T08:58:05.673Z,99785.75
2023-03-18T09:00:34.881Z,99788.66
2023-03-18T09:03:01.901Z,99714.19
2023-03-18T09:05:29.038Z,99754.50
2023-03-18T09:07:55.935Z,99756.91
2023-03-18T09:10:22.733Z,99741.19
2023-03-18T09:12:50.049Z,99725.72
2023-03-18T09:15:20.353Z,99788.28
2023-03-18T09:18:03.691Z,99783.56
2023-03-18T09:20:30.891Z,99785.69
2023-03-18T09:22:57.771Z,99727.22
2023-03-18T09:25:24.822Z,99760.34
2023-03-18T09:27:51.948Z,99759.66
2023-03-18T09:30:19.273Z,99745.84
2023-03-18T09:32:46.565Z,99746.88
2023-03-18T09:35:13.529Z,99741.25
2023-03-18T09:37:40.688Z,99779.28
2023-03-18T09:40:08.497Z,99757.25
2023-03-18T09:42:41.693Z,99805.69
2023-03-18T09:45:31.718Z,99794.78
2023-03-18T09:48:07.505Z,99807.94
2023-03-18T09:50:47.985Z,99790.31
2023-03-18T09:53:22.722Z,99790.94
2023-03-18T09:55:56.107Z,99776.72
2023-03-18T09:58:35.196Z,99809.72
2023-03-18T10:01:04.814Z,99784.63
2023-03-18T10:03:43.950Z,99805.56
2023-03-18T10:06:19.816Z,99777.22
2023-03-18T10:08:56.446Z,99806.28
2023-03-18T10:11:23.246Z,99805.84
2023-03-18T10:14:32.081Z,99780.13
2023-03-18T10:17:14.105Z,99801.03
2023-03-18T10:19:48.353Z,99798.81
2023-03-18T10:22:45.541Z,99795.63
2023-03-18T10:25:25.002Z,99729.78
2023-03-18T10:28:04.192Z,99799.56
2023-03-18T10:30:58.215Z,99773.66
2023-03-18T10:33:44.952Z,99804.34
2023-03-18T10:36:36.188Z,99805.28
2023-03-18T10:39:03.953Z,99798.44
2023-03-18T10:41:34.601Z,99791.66
2023-03-18T10:44:07.345Z,99753.47
2023-03-18T10:46:36.593Z,99760.44
2023-03-18T10:49:15.166Z,99778.97
2023-03-18T10:51:45.574Z,99755.75
2023-03-18T10:54:52.745Z,99782.91
2023-03-18T10:57:21.793Z,99730.44
2023-03-18T10:59:51.473Z,99776.50
2023-03-18T11:02:32.990Z,99793.81
2023-03-18T11:05:27.603Z,99794.69
2023-03-18T11:08:05.067Z,99787.75
2023-03-18T11:10:40.470Z,99790.84
2023-03-18T11:13:07.172Z,99724.16
2023-03-18T11:15:39.864Z,99797.66
2023-03-18T11:18:12.209Z,99723.16
2023-03-18T11:20:44.902Z,99792.44
2023-03-18T11:23:53.505Z,99783.00
2023-03-18T11:26:28.768Z,99774.13
2023-03-18T11:28:58.618Z,99792.28
2023-03-18T11:31:25.523Z,99791.00
2023-03-18T11:33:58.971Z,99774.47
2023-03-18T11:36:28.021Z,99773.84
2023-03-18T11:39:01.738Z,99763.25
2023-03-18T11:41:30.368Z,99794.53
2023-03-18T11:44:01.760Z,99747.22
2023-03-18T11:46:39.806Z,99795.94
2023-03-18T11:49:09.472Z,99785.53
2023-03-18T11:51:56.726Z,99793.91
2023-03-18T11:54:45.279Z,99780.38
2023-03-18T11:57:34.624Z,99719.78
2023-03-18T12:00:19.911Z,99784.97
2023-03-18T12:03:00.119Z,99781.03
2023-03-18T12:05:53.938Z,99777.91
2023-03-18T12:08:20.882Z,99772.41
2023-03-18T12:10:53.373Z,99772.78
2023-03-18T12:13:57.113Z,99752.09
2023-03-18T12:16:36.564Z,99761.91
2023-03-18T12:19:21.420Z,99771.03
2023-03-18T12:22:00.957Z,99763.94
2023-03-18T12:24:33.391Z,99764.53
2023-03-18T12:27:06.966Z,99757.63
2023-03-18T12:29:47.980Z,99771.94
2023-03-18T12:32:26.615Z,99761.06
2023-03-18T12:35:06.034Z,99758.25
2023-03-18T12:37:48.552Z,99749.28
2023-03-18T12:40:44.569Z,99755.31
2023-03-18T12:43:30.059Z,99753.44
2023-03-18T12:46:03.708Z,99759.44
2023-03-18T12:48:44.106Z,99752.78
2023-03-18T12:51:18.313Z,99737.97
2023-03-18T12:53:49.141Z,99728.34
2023-03-18T12:56:30.199Z,99720.31
2023-03-18T12:59:07.640Z,99746.78
2023-03-18T13:01:41.256Z,99744.84
2023-03-18T13:04:14.158Z,99706.63
2023-03-18T13:07:14.712Z,99745.41
2023-03-18T13:09:52.820Z,99737.53
2023-03-18T13:12:35.491Z,99736.63
2023-03-18T13:15:24.654Z,99731.03
2023-03-18T13:17:55.270Z,99733.63
2023-03-18T13:20:33.238Z,99729.47
2023-03-18T13:23:10.861Z,99738.72
2023-03-18T13:25:54.245Z,99736.50
2023-03-18T13:28:27.212Z,99733.97
2023-03-18T13:31:11.497Z,99699.81
2023-03-18T13:33:59.486Z,99731.69
2023-03-18T13:36:26.719Z,99731.81
2023-03-18T13:39:08.574Z,99673.25
2023-03-18T13:41:49.882Z,99728.97
2023-03-18T13:44:24.864Z,99667.56
2023-03-18T13:47:00.761Z,99693.94
2023-03-18T13:49:30.869Z,99697.28
2023-03-18T13:52:01.204Z,99688.72
2023-03-18T13:54:41.200Z,99675.69
2023-03-18T13:57:22.952Z,99722.69
2023-03-18T13:59:50.161Z,99650.31
2023-03-18T14:02:43.792Z,99712.19
2023-03-18T14:05:40.509Z,99695.81
2023-03-18T14:08:37.407Z,99708.47
2023-03-18T14:11:28.802Z,99702.88
2023-03-18T14:14:03.051Z,99703.94
2023-03-18T14:16:53.020Z,99672.91
2023-03-18T14:19:28.613Z,99701.19
2023-03-18T14:22:08.032Z,99644.53
2023-03-18T14:24:35.161Z,99624.63
2023-03-18T14:27:04.639Z,99687.97
2023-03-18T14:29:37.435Z,99686.59
2023-03-18T14:32:29.758Z,99688.22
2023-03-18T14:34:59.083Z,99647.78
2023-03-18T14:37:27.930Z,99652.00
2023-03-18T14:40:04.159Z,99638.91
2023-03-18T14:42:53.855Z,99684.63
2023-03-18T14:45:45.019Z,99673.59
2023-03-18T14:48:19.638Z,99669.72
2023-03-18T14:50:51.278Z,99677.81
2023-03-18T14:53:24.157Z,99641.47
2023-03-18T14:55:52.282Z,99672.72
2023-03-18T14:58:23.767Z,99679.78
2023-03-18T15:00:56.941Z,99653.59
2023-03-18T15:03:31.171Z,99677.81
2023-03-18T15:06:03.559Z,99664.13
2023-03-18T15:08:46.744Z,99625.09
2023-03-18T15:11:16.654Z,99628.84
2023-03-18T15:13:44.816Z,99645.41
2023-03-18T15:16:14.361Z,99661.91
2023-03-18T15:18:41.153Z,99621.50
2023-03-18T15:21:19.302Z,99613.56
2023-03-18T15:23:50.260Z,99634.09
2023-03-18T15:26:37.634Z,99648.59
2023-03-18T15:29:28.296Z,99654.28
2023-03-18T15:32:10.319Z,99638.13
2023-03-18T15:34:38.790Z,99655.44
2023-03-18T15:37:34.216Z,99613.09
2023-03-18T15:40:31.452Z,99664.50
2023-03-18T15:43:04.453Z,99600.38
2023-03-18T15:45:33.029Z,99641.44
2023-03-18T15:48:21.742Z,99669.06
2023-03-18T15:50:57.188Z,99659.09
2023-03-18T15:53:30.357Z,99660.00
2023-03-18T15:55:58.670Z,99670.16
2023-03-18T15:58:26.856Z,99667.63
2023-03-18T16:00:56.257Z,99610.69
2023-03-18T16:03:29.289Z,99657.06
2023-03-18T16:05:56.643Z,99632.06
2023-03-18T16:08:24.162Z,99606.91
2023-03-18T16:10:58.182Z,99586.38
2023-03-18T16:13:29.494Z,99608.25
2023-03-18T16:15:56.905Z,99633.69
2023-03-18T16:18:23.641Z,99616.09
2023-03-18T16:20:51.278Z,99635.19
2023-03-18T16:23:18.949Z,99645.41
2023-03-18T16:25:49.780Z,99597.47
2023-03-18T16:28:26.311Z,99643.31
2023-03-18T16:30:54.392Z,99607.63
2023-03-18T16:33:21.707Z,99629.13
2023-03-18T16:35:57.209Z,99595.41
2023-03-18T16:38:25.668Z,99660.28
2023-03-18T16:40:54.718Z,99615.78
2023-03-18T16:43:28.093Z,99664.56
2023-03-18T16:45:57.941Z,99657.66
2023-03-18T16:48:26.756Z,99613.34
2023-03-18T16:50:56.537Z,99598.13
2023-03-18T16:53:27.375Z,99593.75
2023-03-18T16:56:16.519Z,99667.72
2023-03-18T16:58:47.230Z,99653.41
2023-03-18T17:01:17.514Z,99629.47
2023-03-18T17:03:48.666Z,99652.50
2023-03-18T17:06:15.985Z,99645.59
2023-03-18T17:08:42.932Z,99628.13
2023-03-18T17:11:20.977Z,99640.00
2023-03-18T17:13:48.855Z,99520.00
2023-03-18T17:16:20.360Z,99632.34
2023-03-18T17:18:50.861Z,99651.25
2023-03-18T17:21:18.088Z,99615.41
2023-03-18T17:23:45.863Z,99586.38
2023-03-18T17:26:15.186Z,99623.09
2023-03-18T17:28:48.801Z,99624.25
2023-03-18T17:31:16.768Z,99574.25
2023-03-18T17:33:43.732Z,99594.31
2023-03-18T17:36:10.715Z,99631.38
2023-03-18T17:38:37.571Z,99644.38
2023-03-18T17:41:16.953Z,99634.94
2023-03-18T17:43:46.376Z,99648.28
2023-03-18T17:46:14.961Z,99641.56
2023-03-18T17:48:41.853Z,99651.91
2023-03-18T17:51:18.043Z,99489.03
2023-03-18T17:53:50.234Z,99595.28
2023-03-18T17:56:18.823Z,99594.19
2023-03-18T17:58:48.725Z,99686.63
2023-03-18T18:01:27.441Z,99689.19
2023-03-18T18:03:56.229Z,99663.38
2023-03-18T18:06:30.458Z,99668.50
2023-03-18T18:09:02.531Z,99641.16
2023-03-18T18:11:38.072Z,99629.47
2023-03-18T18:14:25.109Z,99618.13
2023-03-18T18:16:54.266Z,99615.41
2023-03-18T18:19:20.903Z,99618.03
2023-03-18T18:21:49.402Z,99652.75
2023-03-18T18:24:21.953Z,99709.44
2023-03-18T18:26:48.861Z,99636.47
2023-03-18T18:29:20.783Z,99717.38
2023-03-18T18:31:48.060Z,99672.59
2023-03-18T18:34:15.239Z,99668.75
2023-03-18T18:36:42.796Z,99684.63
2023-03-18T18:39:09.748Z,99656.50
2023-03-18T18:41:36.432Z,99657.03
2023-03-18T18:44:03.430Z,99712.31
2023-03-18T18:46:31.081Z,99709.16
2023-03-18T18:48:57.978Z,99655.06
2023-03-18T18:51:25.443Z,99681.19
2023-03-18T18:53:54.204Z,99690.31
2023-03-18T18:56:34.155Z,99726.44
2023-03-18T18:59:02.180Z,99739.09
2023-03-18T19:01:28.863Z,99697.53
2023-03-18T19:03:55.741Z,99715.78
2023-03-18T19:06:31.368Z,99729.59
2023-03-18T19:09:04.605Z,99707.44
2023-03-18T19:11:31.205Z,99730.50
2023-03-18T19:14:24.703Z,99711.75
2023-03-18T19:16:53.995Z,99681.88
2023-03-18T19:19:25.112Z,99667.75
2023-03-18T19:21:52.034Z,99672.59
2023-03-18T19:24:26.408Z,99738.59
2023-03-18T19:26:58.747Z,99727.69
2023-03-18T19:29:27.637Z,99713.22
2023-03-18T19:31:55.718Z,99725.00
2023-03-18T19:34:23.746Z,99738.13
2023-03-18T19:36:56.780Z,99715.38
2023-03-18T19:39:25.104Z,99727.34
2023-03-18T19:41:52.170Z,99750.31
2023-03-18T19:44:26.828Z,99756.66
2023-03-18T19:46:56.439Z,99688.06
2023-03-18T19:49:33.871Z,99757.47
2023-03-18T19:52:02.247Z,99757.16
2023-03-18T19:54:28.990Z,99759.53
2023-03-18T19:56:57.501Z,99703.13
2023-03-18T19:59:31.638Z,99760.78
2023-03-18T20:02:05.126Z,99726.03
2023-03-18T20:04:31.929Z,99726.53
2023-03-18T20:06:58.663Z,99729.00
2023-03-18T20:09:25.444Z,99738.81
2023-03-18T20:11:56.900Z,99738.91
2023-03-18T20:14:28.769Z,99772.44
2023-03-18T20:16:56.235Z,99736.69
2023-03-18T20:19:22.930Z,99783.75
2023-03-18T20:21:49.784Z,99718.53
2023-03-18T20:24:23.495Z,99753.41
2023-03-18T20:26:50.178Z,99749.91
2023-03-18T20:29:19.111Z,99751.38
2023-03-18T20:31:46.135Z,99734.16
2023-03-18T20:34:13.416Z,99766.91
2023-03-18T20:36:41.086Z,99789.97
2023-03-18T20:39:19.039Z,99738.09
2023-03-18T20:41:46.669Z,99770.47
2023-03-18T20:44:13.458Z,99771.78
2023-03-18T20:46:41.834Z,99774.28
2023-03-18T20:49:09.573Z,99748.63
2023-03-18T20:51:40.886Z,99779.44
2023-03-18T20:54:19.042Z,99766.22
2023-03-18T20:56:46.880Z,99755.84
2023-03-18T20:59:13.938Z,99730.47
2023-03-18T21:01:41.188Z,99790.59
2023-03-18T21:04:11.703Z,99767.53
2023-03-18T21:06:38.890Z,99756.44
2023-03-18T21:09:07.170Z,99784.94
2023-03-18T21:11:33.932Z,99767.94
2023-03-18T21:14:00.831Z,99777.53
2023-03-18T21:16:27.906Z,99779.91
2023-03-18T21:18:54.615Z,99785.22
2023-03-18T21:21:29.359Z,99803.13
2023-03-18T21:23:56.088Z,99757.13
2023-03-18T21:26:23.406Z,99750.88
2023-03-18T21:28:51.005Z,99788.22
2023-03-18T21:31:25.446Z,99802.97
2023-03-18T21:33:53.317Z,99778.47
2023-03-18T21:36:20.656Z,99767.53
2023-03-18T21:38:47.605Z,99766.75
2023-03-18T21:41:20.861Z,99772.53
2023-03-18T21:43:47.778Z,99812.69
2023-03-18T21:46:18.135Z,99774.22
2023-03-18T21:48:45.216Z,99763.31
2023-03-18T21:51:37.156Z,99790.22
2023-03-18T21:54:05.213Z,99788.91
2023-03-18T21:56:31.888Z,99789.13
2023-03-18T21:58:58.545Z,99771.94
2023-03-18T22:01:31.102Z,99789.41
2023-03-18T22:03:58.225Z,99790.28
2023-03-18T22:06:25.091Z,99791.19
2023-03-18T22:08:52.300Z,99773.69
2023-03-18T22:11:22.049Z,99817.09
2023-03-18T22:13:49.478Z,99797.28
2023-03-18T22:16:19.042Z,99780.47
2023-03-18T22:18:47.561Z,99810.47
2023-03-18T22:21:27.577Z,99826.13
2023-03-18T22:23:55.670Z,99829.72
2023-03-18T22:26:22.671Z,99777.22
2023-03-18T22:28:50.777Z,99809.63
2023-03-18T22:31:20.970Z,99831.94
2023-03-18T22:33:47.820Z,99796.84
2023-03-18T22:36:16.063Z,99842.16
2023-03-18T22:38:43.061Z,99800.16
2023-03-18T22:41:20.511Z,99826.63
2023-03-18T22:43:47.730Z,99817.16
2023-03-18T22:46:14.701Z,99793.72
2023-03-18T22:48:41.589Z,99833.97
2023-03-18T22:51:08.501Z,99811.28
2023-03-18T22:53:39.924Z,99849.84
2023-03-18T22:56:17.474Z,99841.59
2023-03-18T22:58:44.249Z,99799.56
2023-03-18T23:01:26.777Z,99830.97
2023-03-18T23:03:53.453Z,99812.03
2023-03-18T23:06:23.994Z,99794.78
2023-03-18T23:08:50.937Z,99825.91
2023-03-18T23:11:17.868Z,99853.56
2023-03-18T23:13:53.335Z,99876.53
2023-03-18T23:16:22.877Z,99865.16
2023-03-18T23:18:50.632Z,99858.25
2023-03-18T23:21:23.272Z,99849.63
2023-03-18T23:23:51.084Z,99867.66
2023-03-18T23:26:18.250Z,99844.69
2023-03-18T23:28:45.891Z,99880.22
2023-03-18T23:31:14.360Z,99890.06
2023-03-18T23:33:41.560Z,99890.47
2023-03-18T23:36:08.923Z,99846.44
2023-03-18T23:38:36.321Z,99882.22
2023-03-18T23:41:03.036Z,99873.28
2023-03-18T23:43:29.800Z,99875.41
2023-03-18T23:45:56.547Z,99902.69
2023-03-18T23:48:23.310Z,99877.13
2023-03-18T23:50:50.000Z,99873.63
2023-03-18T23:53:16.701Z,99937.56
2023-03-18T23:55:43.498Z,99868.44
2023-03-18T23:58:10.275Z,99900.53
